createdAt,value
2019-04-26T00:00:07.529Z,17.35
2019-04-26T00:02:41.611Z,17.28
2019-04-26T00:05:10.165Z,17.21
2019-04-26T00:07:37.215Z,17.04
2019-04-26T00:10:10.368Z,16.97
2019-04-26T00:12:47.997Z,16.94
2019-04-26T00:15:33.800Z,16.85
2019-04-26T00:18:02.672Z,16.66
2019-04-26T00:20:32.983Z,16.60
2019-04-26T00:23:01.349Z,16.69
2019-04-26T00:25:28.124Z,16.76
2019-04-26T00:27:54.920Z,16.80
2019-04-26T00:30:24.447Z,16.91
2019-04-26T00:32:53.915Z,17.08
2019-04-26T00:35:23.007Z,17.13
2019-04-26T00:37:51.834Z,16.97
2019-04-26T00:40:18.640Z,16.75
2019-04-26T00:42:45.450Z,16.61
2019-04-26T00:45:13.994Z,16.42
2019-04-26T00:47:43.863Z,16.23
2019-04-26T00:50:13.905Z,16.07
2019-04-26T00:52:42.582Z,15.91
2019-04-26T00:55:11.832Z,15.76
2019-04-26T00:57:38.535Z,15.58
2019-04-26T01:00:05.614Z,15.40
2019-04-26T01:02:38.465Z,15.19
2019-04-26T01:05:05.090Z,15.04
2019-04-26T01:07:34.509Z,15.03
2019-04-26T01:10:04.414Z,14.98
2019-04-26T01:12:33.922Z,14.91
2019-04-26T01:15:02.637Z,14.82
2019-04-26T01:17:32.531Z,14.72
2019-04-26T01:20:01.994Z,14.53
2019-04-26T01:22:33.263Z,14.21
2019-04-26T01:25:03.827Z,13.95
2019-04-26T01:27:32.266Z,13.81
2019-04-26T01:30:05.670Z,13.67
2019-04-26T01:32:32.985Z,13.60
2019-04-26T01:35:02.212Z,13.52
2019-04-26T01:37:32.281Z,13.53
2019-04-26T01:40:05.710Z,13.51
2019-04-26T01:43:01.352Z,13.50
2019-04-26T01:45:36.883Z,13.42
2019-04-26T01:48:29.016Z,13.32
2019-04-26T01:50:55.822Z,13.14
2019-04-26T01:53:22.685Z,12.96
2019-04-26T01:55:52.068Z,12.88
2019-04-26T01:58:25.243Z,12.86
2019-04-26T02:01:11.013Z,12.90
2019-04-26T02:03:37.935Z,12.89
2019-04-26T02:06:04.568Z,12.83
2019-04-26T02:08:34.052Z,12.89
2019-04-26T02:11:03.883Z,12.89
2019-04-26T02:13:33.363Z,12.97
2019-04-26T02:15:59.954Z,13.02
2019-04-26T02:18:33.597Z,13.07
2019-04-26T02:21:27.943Z,13.13
2019-04-26T02:24:01.972Z,13.18
2019-04-26T02:26:42.058Z,13.19
2019-04-26T02:29:14.920Z,13.14
2019-04-26T02:31:44.132Z,13.07
2019-04-26T02:34:14.786Z,13.07
2019-04-26T02:36:57.058Z,13.06
2019-04-26T02:39:17.242Z,12.98
2019-04-26T02:41:47.219Z,12.90
2019-04-26T02:44:16.273Z,12.89
2019-04-26T02:46:54.434Z,12.83
2019-04-26T02:49:38.521Z,12.77
2019-04-26T02:52:44.023Z,12.74
2019-04-26T02:55:38.823Z,12.69
2019-04-26T02:58:02.978Z,12.59
2019-04-26T03:00:33.481Z,12.61
2019-04-26T03:03:04.510Z,12.58
2019-04-26T03:05:39.714Z,12.51
2019-04-26T03:08:14.260Z,12.46
2019-04-26T03:10:48.390Z,12.44
2019-04-26T03:13:38.235Z,12.38
2019-04-26T03:16:32.675Z,12.33
2019-04-26T03:19:11.378Z,12.28
2019-04-26T03:22:03.504Z,12.23
2019-04-26T03:24:53.282Z,12.20
2019-04-26T03:27:40.987Z,12.17
2019-04-26T03:30:22.103Z,12.12
2019-04-26T03:33:17.000Z,12.09
2019-04-26T03:36:22.912Z,12.04
2019-04-26T03:39:11.533Z,12.04
2019-04-26T03:42:06.596Z,11.97
2019-04-26T03:44:40.070Z,11.94
2019-04-26T03:47:11.829Z,11.88
2019-04-26T03:50:07.907Z,11.87
2019-04-26T03:53:23.431Z,11.78
2019-04-26T03:56:14.285Z,11.71
2019-04-26T03:59:04.882Z,11.66
2019-04-26T04:01:46.228Z,11.58
2019-04-26T04:04:39.623Z,11.49
2019-04-26T04:07:10.430Z,11.45
2019-04-26T04:09:41.451Z,11.39
2019-04-26T04:12:17.471Z,11.37
2019-04-26T04:14:54.019Z,11.32
2019-04-26T04:17:39.028Z,11.30
2019-04-26T04:20:32.644Z,11.29
2019-04-26T04:23:16.502Z,11.28
2019-04-26T04:25:47.787Z,11.32
2019-04-26T04:28:51.729Z,11.30
2019-04-26T04:31:27.833Z,11.34
2019-04-26T04:34:13.129Z,11.32
2019-04-26T04:36:50.583Z,11.35
2019-04-26T04:39:32.066Z,11.38
2019-04-26T04:42:30.942Z,11.34
2019-04-26T04:45:30.872Z,11.42
2019-04-26T04:48:22.069Z,11.47
2019-04-26T04:51:00.144Z,11.50
2019-04-26T04:53:46.527Z,11.56
2019-04-26T04:56:58.960Z,11.62
2019-04-26T04:59:31.743Z,11.72
2019-04-26T05:02:33.069Z,11.83
2019-04-26T05:05:19.162Z,11.99
2019-04-26T05:08:06.551Z,12.15
2019-04-26T05:10:44.333Z,12.30
2019-04-26T05:13:27.065Z,12.36
2019-04-26T05:16:28.929Z,12.52
2019-04-26T05:19:52.737Z,12.65
2019-04-26T05:23:06.688Z,12.92
2019-04-26T05:26:30.670Z,13.08
2019-04-26T05:29:36.044Z,13.23
2019-04-26T05:32:35.775Z,13.42
2019-04-26T05:35:39.033Z,13.51
2019-04-26T05:38:21.317Z,13.78
2019-04-26T05:41:21.348Z,14.00
2019-04-26T05:44:17.195Z,14.22
2019-04-26T05:47:22.443Z,14.41
2019-04-26T05:51:11.241Z,14.30
2019-04-26T05:54:31.630Z,14.23
2019-04-26T05:57:20.218Z,14.34
2019-04-26T06:00:21.260Z,14.02
2019-04-26T06:03:44.717Z,13.94
2019-04-26T06:07:02.295Z,13.84
2019-04-26T06:10:13.893Z,13.69
2019-04-26T06:13:02.989Z,13.89
2019-04-26T06:15:56.155Z,14.13
2019-04-26T06:18:49.045Z,14.34
2019-04-26T06:21:42.565Z,14.57
2019-04-26T06:24:52.632Z,14.80
2019-04-26T06:27:45.934Z,14.77
2019-04-26T06:30:18.181Z,15.08
2019-04-26T06:33:34.608Z,15.51
2019-04-26T06:36:06.640Z,15.68
2019-04-26T06:39:25.408Z,16.31
2019-04-26T06:42:47.343Z,16.54
2019-04-26T06:46:08.179Z,16.66
2019-04-26T06:48:51.136Z,16.53
2019-04-26T06:51:24.613Z,16.82
2019-04-26T06:54:15.549Z,16.91
2019-04-26T06:57:37.165Z,17.06
2019-04-26T07:00:20.562Z,17.02
2019-04-26T07:03:12.096Z,17.04
2019-04-26T07:05:42.443Z,17.18
2019-04-26T07:08:56.601Z,17.09
2019-04-26T07:12:28.735Z,17.22
2019-04-26T07:15:52.052Z,17.55
2019-04-26T07:18:26.950Z,17.85
2019-04-26T07:21:11.533Z,17.82
2019-04-26T07:24:14.933Z,17.96
2019-04-26T07:27:19.616Z,17.86
2019-04-26T07:30:21.804Z,18.47
2019-04-26T07:33:18.446Z,18.62
2019-04-26T07:35:59.046Z,18.16
2019-04-26T07:39:13.795Z,18.91
2019-04-26T07:42:11.563Z,18.83
2019-04-26T07:45:31.802Z,18.42
2019-04-26T07:48:32.345Z,18.85
2019-04-26T07:51:48.473Z,18.86
2019-04-26T07:55:06.783Z,18.53
2019-04-26T07:58:06.929Z,18.88
2019-04-26T08:00:45.176Z,19.00
2019-04-26T08:03:18.938Z,18.95
2019-04-26T08:06:08.538Z,18.93
2019-04-26T08:08:43.695Z,18.93
2019-04-26T08:11:17.929Z,18.77
2019-04-26T08:14:06.263Z,18.82
2019-04-26T08:16:43.352Z,18.95
2019-04-26T08:19:19.915Z,19.25
2019-04-26T08:21:49.086Z,19.30
2019-04-26T08:24:21.460Z,19.33
2019-04-26T08:27:08.853Z,19.84
2019-04-26T08:29:44.171Z,19.64
2019-04-26T08:32:21.266Z,19.64
2019-04-26T08:35:02.296Z,18.94
2019-04-26T08:37:41.240Z,18.94
2019-04-26T08:40:08.772Z,18.56
2019-04-26T08:42:43.947Z,18.42
2019-04-26T08:46:17.135Z,18.17
2019-04-26T08:48:17.229Z,18.18
2019-04-26T08:50:47.056Z,18.68
2019-04-26T08:53:14.898Z,19.52
2019-04-26T08:55:46.454Z,20.36
2019-04-26T08:58:19.918Z,20.36
2019-04-26T09:01:16.061Z,19.89
2019-04-26T09:03:58.149Z,19.33
2019-04-26T09:06:46.581Z,19.33
2019-04-26T09:09:19.768Z,18.88
2019-04-26T09:11:59.514Z,19.17
2019-04-26T09:14:21.046Z,19.30
2019-04-26T09:16:50.433Z,19.43
2019-04-26T09:19:16.903Z,19.31
2019-04-26T09:21:53.818Z,19.05
2019-04-26T09:24:45.445Z,18.94
2019-04-26T09:27:21.105Z,18.88
2019-04-26T09:30:07.688Z,18.92
2019-04-26T09:33:07.722Z,18.87
2019-04-26T09:35:34.441Z,18.66
2019-04-26T09:38:01.158Z,18.71
2019-04-26T09:40:28.022Z,18.41
2019-04-26T09:43:06.069Z,18.32
2019-04-26T09:45:51.182Z,18.36
2019-04-26T09:48:24.929Z,18.10
2019-04-26T09:50:54.451Z,18.09
2019-04-26T09:53:25.147Z,18.37
2019-04-26T09:55:53.626Z,18.23
2019-04-26T09:58:20.388Z,18.03
2019-04-26T10:00:50.056Z,17.74
2019-04-26T10:03:16.890Z,17.76
2019-04-26T10:05:44.127Z,17.87
2019-04-26T10:08:17.513Z,17.82
2019-04-26T10:10:45.553Z,17.88
2019-04-26T10:13:46.006Z,18.05
2019-04-26T10:16:29.781Z,17.92
2019-04-26T10:19:03.276Z,17.72
2019-04-26T10:21:34.058Z,18.03
2019-04-26T10:24:00.871Z,18.19
2019-04-26T10:26:29.799Z,18.39
2019-04-26T10:29:01.150Z,18.46
2019-04-26T10:31:51.678Z,18.11
2019-04-26T10:34:16.305Z,18.10
2019-04-26T10:36:56.850Z,17.86
2019-04-26T10:39:24.239Z,17.49
2019-04-26T10:41:56.025Z,17.76
2019-04-26T10:44:24.859Z,17.20
2019-04-26T10:46:55.753Z,16.74
2019-04-26T10:49:45.083Z,17.09
2019-04-26T10:52:27.030Z,16.99
2019-04-26T10:55:24.079Z,17.06
2019-04-26T10:57:55.630Z,17.17
2019-04-26T11:00:43.921Z,17.09
2019-04-26T11:03:11.515Z,17.03
2019-04-26T11:05:41.459Z,17.02
2019-04-26T11:08:12.622Z,16.70
2019-04-26T11:10:48.754Z,16.72
2019-04-26T11:13:21.346Z,16.62
2019-04-26T11:15:49.629Z,16.99
2019-04-26T11:18:19.848Z,17.31
2019-04-26T11:20:49.921Z,17.81
2019-04-26T11:23:23.096Z,18.05
2019-04-26T11:26:01.752Z,17.95
2019-04-26T11:28:34.001Z,17.55
2019-04-26T11:31:02.253Z,17.23
2019-04-26T11:33:44.260Z,17.35
2019-04-26T11:36:06.884Z,17.40
2019-04-26T11:38:45.768Z,17.52
2019-04-26T11:41:13.262Z,17.54
2019-04-26T11:43:40.856Z,17.29
2019-04-26T11:46:07.764Z,17.19
2019-04-26T11:48:36.288Z,17.11
2019-04-26T11:51:03.525Z,17.00
2019-04-26T11:53:33.389Z,16.91
2019-04-26T11:56:04.478Z,16.77
2019-04-26T11:58:31.663Z,16.87
2019-04-26T12:01:03.746Z,16.74
2019-04-26T12:03:31.327Z,16.76
2019-04-26T12:06:27.883Z,16.57
2019-04-26T12:09:15.320Z,16.57
2019-04-26T12:11:50.994Z,16.24
2019-04-26T12:14:20.481Z,16.18
2019-04-26T12:16:49.315Z,16.17
2019-04-26T12:19:18.236Z,16.32
2019-04-26T12:21:47.232Z,16.25
2019-04-26T12:24:16.689Z,15.98
2019-04-26T12:26:46.311Z,15.81
2019-04-26T12:29:14.695Z,15.70
2019-04-26T12:31:42.653Z,15.76
2019-04-26T12:34:09.653Z,16.02
2019-04-26T12:36:36.735Z,16.29
2019-04-26T12:39:07.284Z,15.98
2019-04-26T12:41:40.260Z,15.67
2019-04-26T12:44:03.291Z,15.34
2019-04-26T12:46:36.717Z,15.43
2019-04-26T12:49:03.539Z,15.38
2019-04-26T12:51:30.367Z,15.17
2019-04-26T12:53:57.565Z,15.16
2019-04-26T12:56:30.803Z,15.10
2019-04-26T12:58:55.147Z,15.27
2019-04-26T13:01:30.738Z,15.11
2019-04-26T13:04:04.153Z,14.90
2019-04-26T13:06:33.454Z,14.93
2019-04-26T13:09:00.097Z,14.91
2019-04-26T13:11:52.862Z,14.88
2019-04-26T13:14:25.620Z,14.81
2019-04-26T13:17:01.188Z,14.55
2019-04-26T13:19:34.319Z,14.46
2019-04-26T13:22:01.413Z,14.42
2019-04-26T13:24:28.450Z,14.46
2019-04-26T13:26:55.011Z,14.48
2019-04-26T13:29:21.760Z,14.19
2019-04-26T13:31:48.380Z,14.11
2019-04-26T13:34:16.376Z,14.18
2019-04-26T13:36:44.929Z,14.13
2019-04-26T13:39:13.450Z,13.98
2019-04-26T13:42:03.064Z,13.93
2019-04-26T13:44:43.841Z,14.14
2019-04-26T13:47:42.173Z,14.35
2019-04-26T13:50:15.141Z,14.53
2019-04-26T13:52:42.284Z,14.21
2019-04-26T13:55:09.066Z,14.26
2019-04-26T13:57:36.168Z,14.31
2019-04-26T14:00:06.969Z,14.40
2019-04-26T14:02:32.749Z,14.30
2019-04-26T14:04:59.631Z,14.46
2019-04-26T14:07:26.158Z,14.33
2019-04-26T14:09:52.740Z,14.18
2019-04-26T14:12:19.649Z,14.14
2019-04-26T14:14:46.541Z,14.09
2019-04-26T14:17:13.399Z,14.05
2019-04-26T14:19:40.155Z,14.03
2019-04-26T14:22:07.377Z,13.97
2019-04-26T14:24:56.909Z,13.94
2019-04-26T14:27:28.261Z,13.88
2019-04-26T14:29:55.056Z,13.85
2019-04-26T14:32:23.018Z,13.82
2019-04-26T14:34:50.308Z,13.74
2019-04-26T14:37:18.403Z,13.71
2019-04-26T14:39:50.466Z,13.59
2019-04-26T14:42:14.758Z,13.65
2019-04-26T14:44:49.205Z,13.79
2019-04-26T14:47:14.930Z,13.85
2019-04-26T14:49:42.940Z,13.82
2019-04-26T14:52:09.353Z,13.84
2019-04-26T14:54:37.366Z,13.86
2019-04-26T14:57:09.352Z,13.89
2019-04-26T14:59:56.716Z,13.90
2019-04-26T15:02:47.235Z,13.78
2019-04-26T15:05:17.686Z,13.60
2019-04-26T15:07:51.120Z,13.57
2019-04-26T15:10:15.700Z,13.44
2019-04-26T15:12:48.237Z,13.29
2019-04-26T15:15:15.499Z,13.18
2019-04-26T15:17:42.366Z,13.13
2019-04-26T15:20:09.368Z,13.14
2019-04-26T15:22:36.166Z,12.93
2019-04-26T15:25:07.789Z,12.82
2019-04-26T15:27:36.297Z,12.89
2019-04-26T15:30:04.282Z,12.89
2019-04-26T15:32:32.867Z,12.81
2019-04-26T15:35:00.048Z,12.73
2019-04-26T15:37:28.403Z,12.65
2019-04-26T15:40:09.513Z,12.52
2019-04-26T15:42:45.226Z,12.53
2019-04-26T15:45:21.949Z,12.48
2019-04-26T15:48:12.131Z,12.35
2019-04-26T15:50:47.804Z,12.33
2019-04-26T15:53:12.887Z,12.26
2019-04-26T15:55:40.301Z,12.15
2019-04-26T15:58:08.539Z,11.92
2019-04-26T16:00:36.287Z,11.84
2019-04-26T16:03:07.409Z,11.85
2019-04-26T16:05:33.412Z,11.82
2019-04-26T16:08:01.863Z,11.79
2019-04-26T16:10:37.082Z,11.71
2019-04-26T16:13:00.081Z,11.65
2019-04-26T16:15:32.232Z,11.48
2019-04-26T16:18:03.958Z,11.36
2019-04-26T16:20:33.129Z,11.21
2019-04-26T16:23:00.429Z,11.03
2019-04-26T16:25:39.701Z,11.02
2019-04-26T16:28:24.790Z,10.94
2019-04-26T16:31:13.877Z,10.85
2019-04-26T16:33:46.629Z,10.81
2019-04-26T16:36:13.499Z,10.76
2019-04-26T16:38:41.055Z,10.64
2019-04-26T16:41:08.038Z,10.58
2019-04-26T16:44:02.800Z,10.51
2019-04-26T16:46:29.862Z,10.34
2019-04-26T16:49:02.392Z,10.26
2019-04-26T16:51:34.070Z,10.19
2019-04-26T16:54:10.071Z,10.13
2019-04-26T16:56:29.722Z,9.98
2019-04-26T16:58:57.098Z,10.02
2019-04-26T17:01:23.944Z,9.91
2019-04-26T17:03:53.526Z,9.83
2019-04-26T17:06:23.396Z,9.66
2019-04-26T17:08:58.600Z,9.65
2019-04-26T17:11:18.746Z,9.56
2019-04-26T17:13:50.577Z,9.53
2019-04-26T17:16:14.587Z,9.58
2019-04-26T17:18:42.677Z,9.40
2019-04-26T17:21:10.347Z,9.33
2019-04-26T17:24:00.796Z,9.31
2019-04-26T17:26:36.750Z,9.33
2019-04-26T17:29:03.937Z,9.37
2019-04-26T17:31:30.651Z,9.42
2019-04-26T17:34:00.097Z,9.36
2019-04-26T17:36:26.895Z,9.33
2019-04-26T17:38:55.079Z,9.37
2019-04-26T17:41:22.261Z,9.40
2019-04-26T17:44:05.784Z,9.43
2019-04-26T17:46:21.742Z,9.42
2019-04-26T17:48:49.454Z,9.38
2019-04-26T17:51:22.706Z,9.39
2019-04-26T17:53:48.920Z,9.38
2019-04-26T17:56:18.632Z,9.36
2019-04-26T17:58:52.401Z,9.29
2019-04-26T18:01:39.086Z,9.25
2019-04-26T18:03:50.747Z,9.26
2019-04-26T18:06:14.022Z,9.23
2019-04-26T18:08:51.741Z,9.15
2019-04-26T18:11:18.982Z,9.21
2019-04-26T18:13:38.828Z,9.17
2019-04-26T18:16:05.703Z,9.14
2019-04-26T18:19:08.067Z,9.14
2019-04-26T18:21:56.012Z,9.13
2019-04-26T18:24:20.255Z,9.07
2019-04-26T18:26:52.299Z,9.06
2019-04-26T18:29:17.706Z,9.04
2019-04-26T18:31:44.547Z,9.05
2019-04-26T18:34:12.817Z,9.06
2019-04-26T18:36:39.577Z,8.94
2019-04-26T18:39:07.158Z,8.94
2019-04-26T18:41:34.069Z,8.96
2019-04-26T18:44:14.004Z,8.96
2019-04-26T18:46:59.182Z,9.00
2019-04-26T18:49:27.136Z,8.93
2019-04-26T18:51:54.683Z,8.98
2019-04-26T18:54:37.030Z,8.97
2019-04-26T18:57:04.237Z,8.90
2019-04-26T18:59:34.304Z,8.91
2019-04-26T19:02:00.891Z,8.94
2019-04-26T19:04:30.674Z,8.96
2019-04-26T19:06:57.995Z,8.94
2019-04-26T19:09:31.078Z,8.93
2019-04-26T19:12:04.456Z,8.92
2019-04-26T19:14:49.767Z,8.92
2019-04-26T19:17:33.789Z,8.92
2019-04-26T19:20:26.517Z,8.93
2019-04-26T19:23:02.985Z,8.96
2019-04-26T19:25:38.676Z,8.98
2019-04-26T19:28:08.296Z,8.94
2019-04-26T19:30:35.616Z,8.95
2019-04-26T19:33:02.320Z,9.02
2019-04-26T19:35:29.041Z,9.01
2019-04-26T19:38:16.547Z,9.00
2019-04-26T19:40:47.604Z,8.96
2019-04-26T19:43:12.914Z,8.92
2019-04-26T19:45:49.879Z,8.90
2019-04-26T19:48:22.968Z,8.92
2019-04-26T19:50:54.704Z,8.93
2019-04-26T19:53:42.213Z,8.92
2019-04-26T19:56:12.731Z,8.91
2019-04-26T19:58:39.649Z,8.98
2019-04-26T20:01:06.522Z,9.01
2019-04-26T20:03:33.925Z,9.06
2019-04-26T20:06:01.115Z,9.08
2019-04-26T20:08:29.414Z,9.07
2019-04-26T20:10:56.280Z,9.04
2019-04-26T20:13:23.573Z,9.07
2019-04-26T20:15:51.569Z,9.09
2019-04-26T20:18:21.376Z,9.10
2019-04-26T20:20:48.058Z,9.08
2019-04-26T20:23:14.948Z,9.12
2019-04-26T20:25:41.771Z,9.12
2019-04-26T20:28:14.020Z,9.13
2019-04-26T20:30:52.450Z,9.16
2019-04-26T20:33:19.155Z,9.17
2019-04-26T20:35:46.004Z,9.18
2019-04-26T20:38:14.611Z,9.16
2019-04-26T20:40:43.543Z,9.11
2019-04-26T20:43:22.934Z,9.09
2019-04-26T20:45:41.853Z,9.09
2019-04-26T20:48:08.127Z,9.07
2019-04-26T20:50:36.751Z,9.04
2019-04-26T20:53:03.810Z,9.07
2019-04-26T20:55:34.312Z,9.03
2019-04-26T20:57:59.946Z,9.01
2019-04-26T21:00:27.114Z,9.04
2019-04-26T21:03:01.595Z,9.02
2019-04-26T21:05:22.795Z,9.04
2019-04-26T21:07:51.092Z,8.98
2019-04-26T21:10:22.058Z,8.96
2019-04-26T21:12:52.301Z,8.91
2019-04-26T21:15:20.210Z,8.88
2019-04-26T21:17:56.626Z,8.85
2019-04-26T21:20:27.680Z,8.81
2019-04-26T21:22:53.268Z,8.86
2019-04-26T21:25:41.973Z,8.91
2019-04-26T21:28:22.096Z,8.91
2019-04-26T21:31:03.473Z,8.96
2019-04-26T21:33:38.997Z,8.96
2019-04-26T21:36:13.961Z,8.90
2019-04-26T21:38:51.007Z,8.91
2019-04-26T21:41:20.403Z,8.93
2019-04-26T21:43:57.187Z,8.89
2019-04-26T21:46:23.757Z,8.91
2019-04-26T21:48:50.336Z,8.88
2019-04-26T21:51:17.104Z,8.85
2019-04-26T21:53:52.950Z,8.90
2019-04-26T21:56:20.830Z,8.86
2019-04-26T21:58:47.367Z,8.91
2019-04-26T22:01:19.313Z,8.89
2019-04-26T22:03:53.698Z,8.87
2019-04-26T22:06:14.511Z,8.85
2019-04-26T22:08:49.525Z,8.85
2019-04-26T22:11:20.048Z,8.85
2019-04-26T22:13:53.888Z,8.84
2019-04-26T22:16:34.155Z,8.82
2019-04-26T22:19:27.906Z,8.83
2019-04-26T22:22:04.237Z,8.86
2019-04-26T22:24:33.791Z,8.84
2019-04-26T22:27:00.757Z,8.84
2019-04-26T22:29:27.354Z,8.83
2019-04-26T22:31:54.850Z,8.83
2019-04-26T22:34:21.410Z,8.79
2019-04-26T22:36:49.467Z,8.80
2019-04-26T22:39:16.966Z,8.80
2019-04-26T22:41:43.767Z,8.82
2019-04-26T22:44:16.754Z,8.85
2019-04-26T22:47:03.564Z,8.80
2019-04-26T22:49:29.904Z,8.86
2019-04-26T22:51:56.478Z,8.86
2019-04-26T22:54:24.915Z,8.89
2019-04-26T22:56:53.939Z,8.91
2019-04-26T22:59:20.523Z,8.93
2019-04-26T23:01:48.737Z,8.93
2019-04-26T23:04:22.696Z,8.97
2019-04-26T23:06:46.977Z,8.94
2019-04-26T23:09:16.796Z,8.96
2019-04-26T23:11:43.900Z,8.95
2019-04-26T23:14:19.242Z,8.93
2019-04-26T23:17:11.551Z,8.97
2019-04-26T23:19:44.676Z,8.94
2019-04-26T23:22:12.854Z,8.90
2019-04-26T23:24:39.484Z,8.91
2019-04-26T23:27:16.530Z,8.92
2019-04-26T23:29:45.910Z,8.92
2019-04-26T23:32:18.576Z,8.96
2019-04-26T23:34:41.268Z,8.98
2019-04-26T23:37:08.038Z,8.97
2019-04-26T23:39:34.620Z,8.98
2019-04-26T23:42:01.130Z,9.01
2019-04-26T23:44:27.768Z,8.99
2019-04-26T23:47:00.848Z,9.01
2019-04-26T23:49:25.301Z,9.03
2019-04-26T23:51:53.340Z,9.06
2019-04-26T23:54:20.082Z,9.09
2019-04-26T23:56:47.185Z,9.11
2019-04-26T23:59:24.780Z,9.08
